Time;durP1;ratioP1;P1;durP2;ratioP2;P2;SDS_P1;SDS_P2;PMS_P1;PMS_P2;Temp;Humidity;BMP_temperature;BMP_pressure;BME280_temperature;BME280_humidity;BME280_pressure;Samples;Min_cycle;Max_cycle;Signal;HPM_P1;HPM_P2
2022/03/12 00:00:26;;;;;;;147.60;65.10;;;;;;;-5.02;42.41;100634.39;105957;1273;96388;-70
2022/03/12 00:03:06;;;;;;;150.10;64.40;;;;;;;-5.02;42.79;100635.92;105926;1273;108507;-68
2022/03/12 00:05:36;;;;;;;158.00;67.70;;;;;;;-5.02;42.83;100633.50;106580;1273;98008;-69
2022/03/12 00:08:08;;;;;;;166.40;71.00;;;;;;;-5.03;42.68;100635.59;107188;1273;97870;-69
2022/03/12 00:10:41;;;;;;;160.50;68.20;;;;;;;-5.04;42.83;100633.29;106136;1273;111354;-70
2022/03/12 00:13:11;;;;;;;156.30;69.00;;;;;;;-5.05;42.88;100633.64;106100;1273;96276;-68
2022/03/12 00:15:39;;;;;;;160.80;68.90;;;;;;;-5.07;42.81;100631.52;106045;1273;107622;-67
2022/03/12 00:18:11;;;;;;;159.80;67.80;;;;;;;-5.10;42.86;100629.41;106067;1274;95640;-67
2022/03/12 00:20:39;;;;;;;157.00;71.00;;;;;;;-5.11;42.98;100625.06;106215;1274;97869;-69
2022/03/12 00:23:12;;;;;;;151.20;65.70;;;;;;;-5.13;42.91;100624.19;106097;1274;112035;-68
2022/03/12 00:25:41;;;;;;;164.10;71.80;;;;;;;-5.15;42.90;100623.95;106068;1273;97714;-68
2022/03/12 00:28:12;;;;;;;177.10;70.30;;;;;;;-5.17;43.00;100623.76;106112;1273;107812;-68
2022/03/12 00:30:42;;;;;;;161.00;68.10;;;;;;;-5.18;43.02;100625.80;106225;1273;97937;-68
2022/03/12 00:33:14;;;;;;;158.30;67.50;;;;;;;-5.20;42.98;100625.44;106217;1273;95356;-68
2022/03/12 00:35:42;;;;;;;157.10;68.70;;;;;;;-5.22;43.09;100623.86;106158;1273;111289;-68
2022/03/12 00:38:11;;;;;;;186.40;77.10;;;;;;;-5.25;43.11;100623.79;106147;1273;95363;-69
2022/03/12 00:40:43;;;;;;;185.00;78.70;;;;;;;-5.29;42.95;100622.17;106122;1273;107453;-69
2022/03/12 00:43:11;;;;;;;168.30;72.00;;;;;;;-5.32;43.10;100619.89;106063;1273;97919;-67
2022/03/12 00:45:43;;;;;;;165.90;71.90;;;;;;;-5.33;42.97;100619.16;106144;1275;97861;-67
2022/03/12 00:48:11;;;;;;;165.70;72.30;;;;;;;-5.34;43.12;100616.56;106157;1273;112073;-68
2022/03/12 00:51:03;;;;;;;171.10;72.50;;;;;;;-5.35;43.23;100612.05;106069;1274;98264;-68
2022/03/12 00:53:31;;;;;;;174.70;74.10;;;;;;;-5.37;43.25;100610.29;106179;1273;108378;-69
2022/03/12 00:56:01;;;;;;;170.80;72.30;;;;;;;-5.38;43.13;100609.06;106144;1273;95284;-68
2022/03/12 00:58:32;;;;;;;158.20;72.80;;;;;;;-5.40;43.17;100608.33;106193;1273;97860;-69
2022/03/12 01:01:04;;;;;;;178.80;76.90;;;;;;;-5.40;43.14;100605.73;106018;1273;111941;-70
2022/03/12 01:03:32;;;;;;;172.60;72.10;;;;;;;-5.42;43.27;100602.42;106103;1276;95634;-71
2022/03/12 01:06:04;;;;;;;209.90;88.60;;;;;;;-5.44;43.14;100606.36;106203;1274;107715;-69
2022/03/12 01:08:35;;;;;;;214.10;89.10;;;;;;;-5.50;43.11;100603.14;106185;1274;97857;-69
2022/03/12 01:11:09;;;;;;;193.70;85.70;;;;;;;-5.54;43.29;100605.67;106120;1274;95385;-68
2022/03/12 01:13:39;;;;;;;189.50;79.00;;;;;;;-5.57;43.18;100608.90;106156;1273;111524;-69
2022/03/12 01:16:10;;;;;;;183.60;81.80;;;;;;;-5.59;43.16;100611.29;106259;1274;97833;-71
2022/03/12 01:18:40;;;;;;;184.20;81.30;;;;;;;-5.61;43.42;100612.98;106110;1273;107796;-69
2022/03/12 01:21:17;;;;;;;217.30;92.40;;;;;;;-5.62;43.11;100614.17;106091;1274;95299;-72
2022/03/12 01:23:49;;;;;;;233.00;101.90;;;;;;;-5.78;43.26;100617.52;106159;1273;98309;-70
2022/03/12 01:26:21;;;;;;;245.30;106.40;;;;;;;-5.89;43.21;100619.35;106168;1273;111327;-69
2022/03/12 01:28:51;;;;;;;217.10;96.90;;;;;;;-5.91;43.21;100615.52;106255;1274;97866;-68
2022/03/12 01:31:20;;;;;;;201.70;84.30;;;;;;;-5.91;43.62;100617.77;106190;1272;108287;-69
2022/03/12 01:33:50;;;;;;;198.60;85.40;;;;;;;-5.92;43.70;100616.04;106216;1274;97963;-69
2022/03/12 01:36:21;;;;;;;205.80;87.70;;;;;;;-5.90;43.54;100613.14;106115;1273;95182;-69
2022/03/12 01:38:54;;;;;;;212.60;94.80;;;;;;;-5.88;43.55;100617.30;106089;1274;111915;-69
2022/03/12 01:41:27;;;;;;;222.70;97.70;;;;;;;-5.88;43.66;100616.61;106107;1273;97741;-69
2022/03/12 01:43:59;;;;;;;222.40;93.70;;;;;;;-5.86;43.75;100613.20;106109;1273;107927;-67
2022/03/12 01:46:35;;;;;;;215.80;93.90;;;;;;;-5.86;43.97;100616.14;106050;1274;97997;-67
2022/03/12 01:49:11;;;;;;;206.90;88.20;;;;;;;-5.87;44.05;100613.88;106139;1273;97946;-71
2022/03/12 01:51:43;;;;;;;175.10;76.40;;;;;;;-5.87;43.78;100616.30;106164;1274;111658;-69
2022/03/12 01:54:24;;;;;;;186.60;78.10;;;;;;;-5.87;43.96;100618.20;106124;1275;97968;-70
2022/03/12 01:56:56;;;;;;;190.10;80.30;;;;;;;-5.86;43.98;100614.59;106087;1273;108173;-68
2022/03/12 01:59:26;;;;;;;183.10;80.20;;;;;;;-5.88;43.78;100621.29;106079;1273;98032;-69
2022/03/12 02:01:55;;;;;;;178.20;79.30;;;;;;;-5.90;43.78;100617.61;105960;1276;95235;-69
2022/03/12 02:04:25;;;;;;;193.10;86.30;;;;;;;-5.90;43.96;100620.21;106068;1274;112034;-69
2022/03/12 02:06:53;;;;;;;191.20;82.30;;;;;;;-5.92;44.07;100619.83;106042;1274;96307;-68
2022/03/12 02:09:25;;;;;;;181.50;78.50;;;;;;;-5.94;43.89;100617.73;106034;1274;107732;-71
2022/03/12 02:11:55;;;;;;;191.70;85.40;;;;;;;-6.04;43.75;100617.90;106041;1274;97963;-71
2022/03/12 02:14:27;;;;;;;207.60;86.00;;;;;;;-6.13;43.83;100612.54;106150;1274;97941;-69
2022/03/12 02:17:00;;;;;;;208.50;94.60;;;;;;;-6.28;43.79;100612.23;106273;1274;109354;-70
2022/03/12 02:19:32;;;;;;;201.20;87.50;;;;;;;-6.45;44.11;100615.84;106155;1273;97872;-71
2022/03/12 02:22:07;;;;;;;229.50;102.60;;;;;;;-6.64;45.28;100617.50;106118;1274;108433;-70
2022/03/12 02:24:38;;;;;;;226.40;97.80;;;;;;;-6.90;45.13;100623.30;106139;1274;97867;-68
2022/03/12 02:27:10;;;;;;;222.90;93.10;;;;;;;-7.08;44.80;100623.05;106162;1274;97836;-69
2022/03/12 02:29:41;;;;;;;221.50;96.90;;;;;;;-7.12;44.70;100621.20;106141;1274;112031;-68
2022/03/12 02:32:13;;;;;;;221.50;94.90;;;;;;;-7.11;44.70;100618.34;106163;1274;97865;-67
2022/03/12 02:34:46;;;;;;;214.00;90.60;;;;;;;-7.09;44.98;100615.10;106169;1274;107379;-67
2022/03/12 02:37:28;;;;;;;217.90;95.20;;;;;;;-7.16;45.00;100610.27;106105;1274;95388;-68
2022/03/12 02:40:04;;;;;;;213.80;89.30;;;;;;;-7.18;44.93;100611.61;106107;1273;98042;-68
2022/03/12 02:42:37;;;;;;;202.20;85.80;;;;;;;-7.19;44.94;100611.95;106207;1273;111532;-69
2022/03/12 02:45:09;;;;;;;215.00;91.30;;;;;;;-7.20;44.92;100612.24;106156;1274;95240;-69
2022/03/12 02:47:43;;;;;;;208.40;90.50;;;;;;;-7.18;45.09;100614.89;106198;1273;107607;-70
2022/03/12 02:50:14;;;;;;;194.20;89.80;;;;;;;-7.17;44.88;100613.54;106101;1275;95264;-69
2022/03/12 02:52:45;;;;;;;209.30;93.10;;;;;;;-7.14;45.01;100613.25;106231;1273;97945;-69
2022/03/12 02:55:23;;;;;;;216.20;93.40;;;;;;;-7.11;45.08;100611.60;106126;1273;111372;-71
2022/03/12 02:57:53;;;;;;;203.80;87.80;;;;;;;-7.09;45.03;100610.45;106181;1273;97869;-69
2022/03/12 03:00:22;;;;;;;206.90;93.30;;;;;;;-7.08;45.07;100608.39;106171;1273;107658;-69
2022/03/12 03:02:56;;;;;;;201.80;91.40;;;;;;;-7.11;45.11;100607.79;106161;1273;97874;-69
2022/03/12 03:08:09;;;;;;;206.40;89.20;;;;;;;-7.13;45.21;100613.11;106094;1274;111642;-70
2022/03/12 03:10:40;;;;;;;219.00;91.20;;;;;;;-7.09;45.34;100612.32;106172;1274;97830;-69
2022/03/12 03:13:31;;;;;;;194.50;83.40;;;;;;;-7.05;45.46;100615.90;105987;1274;106043;-69
2022/03/12 03:16:07;;;;;;;217.70;95.90;;;;;;;-7.03;45.33;100610.40;106023;1275;96387;-67
2022/03/12 03:18:40;;;;;;;205.30;86.00;;;;;;;-7.09;45.30;100615.27;106136;1274;97963;-68
2022/03/12 03:21:13;;;;;;;197.90;87.10;;;;;;;-7.13;45.28;100612.23;106075;1274;111008;-69
2022/03/12 03:23:44;;;;;;;201.40;84.80;;;;;;;-7.13;45.41;100612.41;106049;1274;95272;-66
2022/03/12 03:26:21;;;;;;;192.70;84.00;;;;;;;-7.12;45.40;100614.34;106118;1274;107781;-69
2022/03/12 03:28:49;;;;;;;173.90;71.10;;;;;;;-7.13;46.25;100615.69;106132;1274;95243;-70
2022/03/12 03:31:18;;;;;;;175.40;76.50;;;;;;;-7.31;46.77;100618.70;106230;1274;97841;-67
2022/03/12 03:33:50;;;;;;;186.50;79.30;;;;;;;-7.44;46.21;100618.87;106199;1274;111334;-67
2022/03/12 03:36:19;;;;;;;163.00;71.50;;;;;;;-7.43;46.30;100621.83;106079;1273;191352;-67
2022/03/12 03:38:48;;;;;;;171.80;73.60;;;;;;;-7.42;46.08;100617.89;106236;1274;107520;-68
2022/03/12 03:41:18;;;;;;;156.90;68.40;;;;;;;-7.44;46.23;100610.43;106157;1274;97943;-67
2022/03/12 03:43:51;;;;;;;152.00;63.80;;;;;;;-7.46;46.31;100616.42;106209;1273;97958;-67
2022/03/12 03:46:22;;;;;;;162.40;70.30;;;;;;;-7.53;47.43;100611.96;106232;1274;111373;-69
2022/03/12 03:48:54;;;;;;;158.20;66.40;;;;;;;-7.68;47.25;100611.55;106223;1274;97976;-68
2022/03/12 03:51:24;;;;;;;144.80;62.60;;;;;;;-7.71;47.02;100607.16;106110;1274;107862;-69
2022/03/12 03:53:54;;;;;;;161.80;66.50;;;;;;;-7.71;46.72;100603.36;106201;1274;97961;-70
2022/03/12 03:56:22;;;;;;;154.40;66.70;;;;;;;-7.69;46.69;100603.10;106246;1274;97848;-67
2022/03/12 03:58:52;;;;;;;142.70;61.00;;;;;;;-7.63;46.78;100602.91;106151;1274;112742;-70
2022/03/12 04:01:22;;;;;;;139.80;58.10;;;;;;;-7.59;47.72;100607.67;106127;1274;97666;-70
2022/03/12 04:03:52;;;;;;;144.20;65.10;;;;;;;-7.79;48.11;100606.96;106056;1274;107588;-68
2022/03/12 04:06:27;;;;;;;135.50;57.60;;;;;;;-7.91;48.12;100608.36;106073;1274;95314;-69
2022/03/12 04:08:55;;;;;;;;;;;;;;;-7.95;47.91;100606.73;106150;1274;98005;-67
2022/03/12 04:11:27;;;;;;;138.60;57.50;;;;;;;-7.96;49.05;100606.35;106110;1274;111910;-67
2022/03/12 04:13:59;;;;;;;124.40;55.00;;;;;;;-7.96;47.95;100604.27;106216;1274;97895;-69
2022/03/12 04:16:31;;;;;;;134.60;55.40;;;;;;;-7.93;47.79;100601.23;106218;1274;107604;-67
2022/03/12 04:19:03;;;;;;;;;;;;;;;-7.90;47.91;100601.48;106245;1273;97883;-68
2022/03/12 04:21:33;;;;;;;143.50;57.50;;;;;;;-7.88;47.55;100603.95;106256;1274;97856;-67
2022/03/12 04:24:05;;;;;;;153.10;67.30;;;;;;;-7.84;47.61;100603.20;106240;1274;111982;-69
2022/03/12 04:26:35;;;;;;;145.70;58.20;;;;;;;-7.81;47.57;100604.34;106287;1274;97936;-68
2022/03/12 04:29:09;;;;;;;140.80;58.40;;;;;;;-7.79;47.45;100605.42;106110;1274;108417;-69
2022/03/12 04:31:37;;;;;;;145.10;62.80;;;;;;;-7.78;47.62;100608.39;106151;1274;97855;-72
2022/03/12 04:34:07;;;;;;;157.60;63.50;;;;;;;-7.75;47.80;100603.46;106265;1274;97946;-71
2022/03/12 04:36:36;;;;;;;150.70;61.90;;;;;;;-7.71;47.56;100600.98;106168;1273;111145;-73
2022/03/12 04:39:05;;;;;;;150.80;65.60;;;;;;;-7.68;47.50;100601.91;106118;1274;96579;-69
2022/03/12 04:41:39;;;;;;;152.90;66.20;;;;;;;-7.66;47.63;100601.46;106174;1274;108487;-68
2022/03/12 04:44:09;;;;;;;147.90;60.70;;;;;;;-7.64;47.67;100600.30;106095;1274;95303;-68
2022/03/12 04:46:40;;;;;;;149.80;62.80;;;;;;;-7.64;47.49;100601.69;106151;1274;97956;-70
2022/03/12 04:49:08;;;;;;;137.10;58.30;;;;;;;-7.65;47.38;100602.15;106131;1274;111765;-69
2022/03/12 04:51:38;;;;;;;136.60;56.40;;;;;;;-7.66;47.69;100599.02;106124;1274;95199;-68
2022/03/12 04:54:06;;;;;;;127.40;51.30;;;;;;;-7.68;47.74;100599.66;106147;1274;108328;-70
2022/03/12 04:56:36;;;;;;;134.00;51.10;;;;;;;-7.80;48.95;100600.91;106150;1274;97915;-69
2022/03/12 04:59:04;;;;;;;121.60;51.10;;;;;;;-8.02;49.65;100599.79;106243;1274;97866;-70
2022/03/12 05:01:34;;;;;;;108.00;46.30;;;;;;;-8.19;50.14;100600.19;106179;1273;111283;-69
2022/03/12 05:04:03;;;;;;;117.50;49.10;;;;;;;-8.31;50.03;100598.29;106140;1274;97882;-69
2022/03/12 05:06:35;;;;;;;110.60;47.50;;;;;;;-8.35;49.48;100593.89;106121;1274;108411;-72
2022/03/12 05:09:04;;;;;;;106.20;45.30;;;;;;;-8.34;49.61;100589.61;106076;1274;96450;-70
2022/03/12 05:11:38;;;;;;;106.40;45.60;;;;;;;-8.31;49.28;100587.63;106199;1274;97870;-70
2022/03/12 05:14:10;;;;;;;98.10;45.10;;;;;;;-8.24;49.10;100583.89;106229;1274;109142;-70
2022/03/12 05:16:38;;;;;;;101.60;44.30;;;;;;;-8.16;49.02;100585.14;106248;1274;97911;-71
2022/03/12 05:19:08;;;;;;;98.10;42.20;;;;;;;-8.08;49.19;100586.73;106195;1274;108385;-67
2022/03/12 05:21:37;;;;;;;92.00;39.70;;;;;;;-7.99;48.92;100586.45;106106;1274;95273;-70
2022/03/12 05:24:10;;;;;;;90.70;36.30;;;;;;;-7.93;48.99;100585.23;106182;1274;97892;-69
2022/03/12 05:26:39;;;;;;;91.20;38.10;;;;;;;-7.88;48.80;100589.15;106082;1274;112042;-67
2022/03/12 05:29:09;;;;;;;89.30;39.80;;;;;;;-7.84;48.95;100593.39;106113;1274;97879;-68
2022/03/12 05:31:39;;;;;;;95.30;39.30;;;;;;;-7.79;49.18;100592.33;106145;1274;108319;-68
2022/03/12 05:34:09;;;;;;;88.30;37.40;;;;;;;-7.78;49.71;100588.76;106037;1274;97950;-69
2022/03/12 05:36:38;;;;;;;84.20;34.80;;;;;;;-7.79;49.91;100585.61;106108;1274;97854;-67
2022/03/12 05:39:06;;;;;;;87.90;36.50;;;;;;;-7.79;50.25;100587.17;106158;1274;109583;-69
2022/03/12 05:41:36;;;;;;;83.90;37.90;;;;;;;-7.75;51.04;100586.40;106077;1274;97869;-69
2022/03/12 05:44:06;;;;;;;79.20;32.80;;;;;;;-7.73;51.29;100582.81;106009;1274;108438;-69
2022/03/12 05:46:34;;;;;;;83.80;33.70;;;;;;;-7.72;52.03;100582.85;105967;1275;97890;-69
2022/03/12 05:49:03;;;;;;;79.70;33.10;;;;;;;-7.73;52.10;100582.15;106091;1274;97974;-68
2022/03/12 05:51:34;;;;;;;85.70;34.10;;;;;;;-7.69;52.31;100583.27;106095;1274;110801;-69
2022/03/12 05:54:03;;;;;;;75.10;32.70;;;;;;;-7.64;52.36;100586.85;106200;1274;97844;-70
2022/03/12 05:56:31;;;;;;;79.00;34.50;;;;;;;-7.60;52.84;100585.41;106094;1274;107980;-69
2022/03/12 05:59:01;;;;;;;80.80;35.70;;;;;;;-7.57;52.43;100586.33;106186;1274;97965;-72
2022/03/12 06:01:33;;;;;;;71.40;30.90;;;;;;;-7.53;52.97;100586.09;106104;1274;97963;-72
2022/03/12 06:04:01;;;;;;;75.50;32.80;;;;;;;-7.48;52.97;100588.64;106063;1274;111333;-71
2022/03/12 06:06:35;;;;;;;76.60;32.70;;;;;;;-7.43;53.55;100589.95;106233;1274;97976;-71
2022/03/12 06:09:08;;;;;;;73.10;29.50;;;;;;;-7.41;53.77;100587.77;106142;1274;107737;-69
2022/03/12 06:11:37;;;;;;;74.20;33.00;;;;;;;-7.37;53.91;100589.76;106268;1274;95281;-69
2022/03/12 06:14:08;;;;;;;78.90;34.30;;;;;;;-7.33;54.17;100590.38;105999;1274;97886;-71
2022/03/12 06:16:38;;;;;;;76.30;33.80;;;;;;;-7.27;53.71;100587.24;106085;1273;111390;-66
2022/03/12 06:19:07;;;;;;;72.10;29.60;;;;;;;-7.17;53.75;100589.55;106099;1274;97823;-68
2022/03/12 06:21:39;;;;;;;72.20;31.70;;;;;;;-7.07;53.67;100592.20;106122;1274;107610;-69
2022/03/12 06:24:07;;;;;;;66.50;29.10;;;;;;;-6.97;53.33;100587.27;106081;1274;98004;-68
2022/03/12 06:26:38;;;;;;;68.50;29.30;;;;;;;-6.84;53.48;100593.77;105986;1274;95367;-67
2022/03/12 06:29:14;;;;;;;67.80;28.20;;;;;;;-6.72;53.73;100596.29;105998;1274;111070;-66
2022/03/12 06:31:43;;;;;;;66.90;29.50;;;;;;;-6.60;53.29;100604.84;106063;1274;95319;-71
2022/03/12 06:34:13;;;;;;;69.70;29.70;;;;;;;-6.47;53.53;100606.15;105999;1274;107289;-70
2022/03/12 06:36:44;;;;;;;68.30;30.70;;;;;;;-6.34;53.67;100606.41;105991;1274;98069;-69
2022/03/12 06:39:16;;;;;;;70.80;29.00;;;;;;;-6.22;53.46;100608.20;106063;1274;97871;-68
2022/03/12 06:41:45;;;;;;;71.30;29.80;;;;;;;-6.11;53.50;100612.23;105991;1275;111310;-72
2022/03/12 06:44:16;;;;;;;66.50;28.80;;;;;;;-5.99;53.15;100610.73;105969;1274;97898;-71
2022/03/12 06:46:48;;;;;;;65.60;29.30;;;;;;;-5.88;53.16;100609.38;106034;1274;107811;-71
2022/03/12 06:49:20;;;;;;;62.10;26.80;;;;;;;-5.76;53.24;100606.82;106035;1274;97880;-72
2022/03/12 06:51:47;;;;;;;58.20;25.70;;;;;;;-5.63;53.01;100608.95;106141;1274;95312;-75
2022/03/12 06:54:15;;;;;;;58.80;24.80;;;;;;;-5.52;52.99;100608.63;106124;1274;113274;-71
2022/03/12 06:56:43;;;;;;;57.90;26.20;;;;;;;-5.41;53.29;100608.31;106115;1274;97806;-72
2022/03/12 06:59:15;;;;;;;54.30;25.60;;;;;;;-5.29;53.26;100610.23;106056;1274;107744;-71
2022/03/12 07:01:46;;;;;;;59.20;23.60;;;;;;;-5.18;53.19;100608.52;105979;1274;98614;-71
2022/03/12 07:04:16;;;;;;;57.30;25.30;;;;;;;-5.09;53.12;100602.77;106131;1274;97962;-70
2022/03/12 07:06:45;;;;;;;50.20;21.80;;;;;;;-4.98;53.13;100597.41;106095;1274;111418;-70
2022/03/12 07:09:13;;;;;;;47.80;20.70;;;;;;;-4.87;53.20;100597.74;106111;1274;97955;-69
2022/03/12 07:11:41;;;;;;;49.20;22.10;;;;;;;-4.76;53.09;100600.16;105987;1274;107737;-71
2022/03/12 07:14:11;;;;;;;47.00;19.80;;;;;;;-4.65;53.26;100601.88;106058;1274;97908;-70
2022/03/12 07:16:38;;;;;;;48.30;17.80;;;;;;;-4.52;53.36;100598.42;105923;1274;99438;-69
2022/03/12 07:19:08;;;;;;;44.50;17.90;;;;;;;-4.41;53.45;100603.41;107549;1274;111890;-70
2022/03/12 07:21:38;;;;;;;45.70;19.00;;;;;;;-4.29;53.41;100606.52;105996;1274;96316;-71
2022/03/12 07:24:07;;;;;;;47.00;18.90;;;;;;;-4.19;53.33;100601.27;106053;1272;108507;-71
2022/03/12 07:26:34;;;;;;;44.60;19.80;;;;;;;-4.08;53.26;100601.41;106043;1274;97988;-71
2022/03/12 07:29:02;;;;;;;42.20;18.00;;;;;;;-3.97;53.18;100601.89;106130;1274;97833;-70
2022/03/12 07:31:32;;;;;;;40.10;16.20;;;;;;;-3.86;53.33;100604.77;105935;1274;112590;-68
2022/03/12 07:34:00;;;;;;;37.90;17.20;;;;;;;-3.74;53.44;100604.20;106410;1273;97964;-71
2022/03/12 07:36:28;;;;;;;38.60;16.70;;;;;;;-3.62;53.40;100601.55;107777;1274;105822;-69
2022/03/12 07:39:02;;;;;;;44.10;17.60;;;;;;;-3.50;53.40;100602.35;107331;1274;97884;-70
2022/03/12 07:41:32;;;;;;;43.40;16.80;;;;;;;-3.39;53.27;100603.16;105827;1274;97862;-72
2022/03/12 07:44:00;;;;;;;35.00;15.80;;;;;;;-3.26;53.12;100603.09;105863;1274;111833;-67
2022/03/12 07:46:30;;;;;;;37.90;14.40;;;;;;;-3.14;53.23;100604.41;106126;1274;96270;-69
2022/03/12 07:49:01;;;;;;;40.30;16.20;;;;;;;-3.03;53.04;100603.09;106051;1274;107662;-67
2022/03/12 07:51:32;;;;;;;38.80;16.50;;;;;;;-2.93;53.16;100601.80;106145;1274;97872;-72
2022/03/12 07:54:04;;;;;;;34.70;14.90;;;;;;;-2.83;53.19;100601.16;106188;1274;97902;-70
2022/03/12 07:56:35;;;;;;;37.20;15.50;;;;;;;-2.74;53.30;100599.50;106106;1274;112396;-71
2022/03/12 07:59:03;;;;;;;37.40;15.70;;;;;;;-2.64;53.17;100598.34;106175;1274;95222;-69
2022/03/12 08:01:33;;;;;;;38.50;16.40;;;;;;;-2.52;53.30;100595.45;106138;1274;107834;-68
2022/03/12 08:04:06;;;;;;;38.30;14.80;;;;;;;-2.40;53.50;100593.60;106165;1274;97876;-69
2022/03/12 08:06:36;;;;;;;36.00;15.50;;;;;;;-2.25;53.34;100587.24;106189;1274;95154;-69
2022/03/12 08:09:06;;;;;;;34.90;14.10;;;;;;;-2.10;53.54;100586.44;106083;1274;110898;-67
2022/03/12 08:11:35;;;;;;;38.20;14.90;;;;;;;-1.96;53.10;100583.00;106189;1274;97893;-66
2022/03/12 08:14:15;;;;;;;33.30;12.50;;;;;;;-1.82;53.52;100581.48;106112;1274;108456;-68
2022/03/12 08:16:45;;;;;;;32.10;13.20;;;;;;;-1.69;53.50;100584.12;106103;1274;95210;-68
2022/03/12 08:19:17;;;;;;;37.70;14.40;;;;;;;-1.57;53.25;100578.91;106115;1274;97878;-67
2022/03/12 08:21:49;;;;;;;33.00;14.00;;;;;;;-1.45;53.56;100579.45;106025;1274;111348;-69
2022/03/12 08:24:19;;;;;;;36.30;14.00;;;;;;;-1.31;53.44;100575.63;106075;1274;97877;-66
2022/03/12 08:26:51;;;;;;;31.90;11.90;;;;;;;-1.19;53.63;100571.98;106025;1274;108316;-71
2022/03/12 08:29:19;;;;;;;28.90;12.50;;;;;;;-1.04;53.57;100572.66;106149;1274;97980;-70
2022/03/12 08:31:49;;;;;;;32.10;12.50;;;;;;;-0.91;53.65;100571.60;106241;1272;97950;-68
2022/03/12 08:34:18;;;;;;;31.20;13.30;;;;;;;-0.78;53.36;100570.36;106222;1274;112191;-68
2022/03/12 08:36:48;;;;;;;31.90;13.20;;;;;;;-0.62;53.56;100566.14;106168;1274;97895;-70
2022/03/12 08:39:20;;;;;;;33.90;12.90;;;;;;;-0.49;53.53;100568.02;106156;1274;108295;-68
2022/03/12 08:41:48;;;;;;;35.40;13.70;;;;;;;-0.36;53.34;100568.67;106010;1274;99156;-69
2022/03/12 08:44:17;;;;;;;30.50;10.90;;;;;;;-0.24;53.50;100568.11;105991;1274;97873;-69
2022/03/12 08:46:49;;;;;;;30.10;10.70;;;;;;;-0.06;53.60;100566.80;105959;1274;111062;-68
2022/03/12 08:49:18;;;;;;;23.10;8.80;;;;;;;0.58;53.74;100559.23;105988;1274;97767;-69
2022/03/12 08:51:49;;;;;;;24.80;8.90;;;;;;;1.65;53.69;100560.48;105974;1274;108385;-67
2022/03/12 08:54:17;;;;;;;26.30;10.70;;;;;;;2.60;54.02;100560.91;105940;1274;97979;-69
2022/03/12 08:56:45;;;;;;;25.50;10.00;;;;;;;3.40;54.06;100559.36;106062;1274;97891;-70
2022/03/12 08:59:14;;;;;;;22.40;8.70;;;;;;;4.10;54.13;100554.95;106026;1274;112156;-69
2022/03/12 09:01:44;;;;;;;24.60;10.00;;;;;;;4.62;54.30;100552.73;106081;1273;96413;-70
2022/03/12 09:04:17;;;;;;;27.40;10.50;;;;;;;5.05;54.19;100557.46;106033;1273;108595;-69
2022/03/12 09:06:49;;;;;;;24.60;9.80;;;;;;;5.34;54.04;100555.09;106060;1273;95191;-68
2022/03/12 09:09:23;;;;;;;22.90;8.60;;;;;;;5.52;54.01;100558.49;106117;1273;96176;-69
2022/03/12 09:11:51;;;;;;;22.10;8.00;;;;;;;5.64;53.95;100558.34;106070;1274;111697;-69
2022/03/12 09:14:19;;;;;;;18.40;5.90;;;;;;;5.70;51.99;100554.48;106116;1273;97934;-69
2022/03/12 09:16:49;;;;;;;18.40;6.30;;;;;;;5.65;53.23;100544.42;106009;1273;107646;-68
2022/03/12 09:19:19;;;;;;;18.60;6.40;;;;;;;5.77;53.42;100546.89;106072;1273;95246;-69
2022/03/12 09:21:48;;;;;;;22.00;9.10;;;;;;;5.95;53.03;100545.48;106103;1273;97944;-68
2022/03/12 09:24:18;;;;;;;15.70;5.50;;;;;;;6.08;53.17;100542.84;106140;1273;111758;-69
2022/03/12 09:26:47;;;;;;;13.80;4.80;;;;;;;6.24;53.22;100537.95;106146;1273;97900;-68
2022/03/12 09:29:18;;;;;;;16.20;6.20;;;;;;;6.40;53.25;100536.57;106054;1274;108363;-68
2022/03/12 09:31:46;;;;;;;19.30;6.00;;;;;;;6.52;53.24;100531.60;106083;1273;97806;-69
2022/03/12 09:34:16;;;;;;;16.90;5.10;;;;;;;6.66;52.83;100530.27;106094;1273;97886;-70
2022/03/12 09:36:44;;;;;;;19.00;6.50;;;;;;;6.60;52.26;100533.62;105995;1272;111993;-69
2022/03/12 09:39:12;;;;;;;18.30;6.10;;;;;;;6.54;52.48;100527.84;106052;1273;97980;-70
2022/03/12 09:41:40;;;;;;;22.60;6.70;;;;;;;6.62;52.51;100529.35;106051;1273;107760;-71
2022/03/12 09:44:09;;;;;;;15.70;5.80;;;;;;;6.84;52.63;100527.02;106087;1273;97727;-66
2022/03/12 09:46:37;;;;;;;18.30;5.60;;;;;;;7.12;52.27;100517.43;106168;1273;98025;-70
2022/03/12 09:49:11;;;;;;;17.10;6.30;;;;;;;7.40;52.49;100518.90;106012;1273;111660;-69
2022/03/12 09:51:44;;;;;;;15.30;5.60;;;;;;;7.67;52.21;100517.23;106102;1273;97887;-67
2022/03/12 09:54:15;;;;;;;17.90;6.10;;;;;;;7.81;52.07;100517.58;106080;1273;107615;-68
2022/03/12 09:56:43;;;;;;;18.50;6.80;;;;;;;7.87;51.75;100519.28;106152;1273;96639;-64
2022/03/12 09:59:12;;;;;;;19.30;7.10;;;;;;;7.90;51.57;100516.20;106137;1274;97983;-67
2022/03/12 10:01:42;;;;;;;20.00;6.90;;;;;;;7.90;51.33;100514.59;106118;1273;111338;-67
2022/03/12 10:04:12;;;;;;;20.70;6.90;;;;;;;7.91;51.61;100518.08;106150;1273;97908;-67
2022/03/12 10:06:44;;;;;;;19.40;6.80;;;;;;;7.94;51.53;100513.38;106079;1273;108333;-67
2022/03/12 10:09:14;;;;;;;18.60;7.50;;;;;;;7.99;51.43;100515.30;106054;1273;97952;-69
2022/03/12 10:11:45;;;;;;;20.20;7.10;;;;;;;8.07;51.18;100508.64;106094;1273;97900;-68
2022/03/12 10:14:13;;;;;;;20.10;7.80;;;;;;;8.07;51.07;100507.57;106003;1274;111394;-70
2022/03/12 10:16:43;;;;;;;20.00;7.70;;;;;;;8.03;51.21;100509.46;106102;1274;97962;-68
2022/03/12 10:19:12;;;;;;;19.60;7.70;;;;;;;8.01;51.24;100507.09;105989;1274;107628;-70
2022/03/12 10:21:42;;;;;;;19.90;8.10;;;;;;;8.00;51.38;100505.21;106059;1274;95388;-71
2022/03/12 10:24:14;;;;;;;24.10;8.80;;;;;;;8.02;51.23;100503.00;106104;1273;97901;-71
2022/03/12 10:26:42;;;;;;;22.40;8.90;;;;;;;8.03;50.23;100497.30;106107;1274;111639;-72
2022/03/12 10:29:10;;;;;;;21.60;8.30;;;;;;;7.99;50.03;100498.52;106153;1274;97932;-73
2022/03/12 10:31:41;;;;;;;23.80;9.60;;;;;;;7.96;49.92;100495.65;106082;1273;107474;-76
2022/03/12 10:34:25;;;;;;;22.30;9.40;;;;;;;7.86;50.03;100493.38;106081;1273;97942;-75
2022/03/12 10:36:58;;;;;;;22.90;8.60;;;;;;;7.73;49.58;100487.15;106082;1274;97976;-70
2022/03/12 10:39:37;;;;;;;22.00;9.60;;;;;;;7.62;49.43;100481.74;106050;1274;111315;-71
2022/03/12 10:42:08;;;;;;;22.00;9.20;;;;;;;7.54;49.43;100482.36;106098;1273;95845;-71
2022/03/12 10:44:40;;;;;;;23.70;9.30;;;;;;;7.54;49.74;100475.52;106086;1273;107442;-68
2022/03/12 10:47:23;;;;;;;22.30;9.40;;;;;;;7.54;49.86;100474.27;106191;1274;98430;-70
2022/03/12 10:49:59;;;;;;;22.60;9.80;;;;;;;7.61;49.67;100471.90;106107;1273;97851;-70
2022/03/12 10:52:30;;;;;;;24.40;10.50;;;;;;;7.61;49.39;100467.64;106113;1273;111481;-70
2022/03/12 10:55:07;;;;;;;25.80;9.50;;;;;;;7.48;49.04;100462.31;106087;1274;96436;-71
2022/03/12 10:57:36;;;;;;;23.60;9.40;;;;;;;7.34;48.82;100463.19;106155;1274;106794;-71
2022/03/12 11:00:11;;;;;;;25.00;9.60;;;;;;;7.30;48.89;100458.73;106127;1274;95296;-71
2022/03/12 11:02:42;;;;;;;24.10;10.70;;;;;;;7.32;48.77;100454.11;106096;1273;98048;-71
2022/03/12 11:05:10;;;;;;;22.80;8.90;;;;;;;7.26;48.69;100451.30;106124;1274;111472;-69
2022/03/12 11:07:38;;;;;;;21.80;8.60;;;;;;;7.24;48.81;100449.25;106063;1273;98003;-71
2022/03/12 11:10:07;;;;;;;23.70;9.20;;;;;;;7.20;48.22;100442.01;106083;1273;106833;-68
2022/03/12 11:12:36;;;;;;;24.60;9.00;;;;;;;7.20;48.19;100442.68;106029;1274;98006;-70
2022/03/12 11:15:06;;;;;;;22.30;9.70;;;;;;;7.26;48.37;100441.96;106110;1274;97877;-69
2022/03/12 11:17:45;;;;;;;26.70;10.00;;;;;;;7.23;47.97;100441.88;106068;1274;112213;-69